createdAt,value
2023-04-11T00:01:23.419Z,69.80
2023-04-11T00:03:53.564Z,69.69
2023-04-11T00:06:22.126Z,69.62
2023-04-11T00:08:50.508Z,69.57
2023-04-11T00:11:19.511Z,69.65
2023-04-11T00:13:49.001Z,69.47
2023-04-11T00:16:24.777Z,69.58
2023-04-11T00:18:53.401Z,69.65
2023-04-11T00:21:21.827Z,69.61
2023-04-11T00:23:50.416Z,69.59
2023-04-11T00:26:19.200Z,69.65
2023-04-11T00:28:51.864Z,69.72
2023-04-11T00:31:20.684Z,69.76
2023-04-11T00:33:49.364Z,69.78
2023-04-11T00:36:17.835Z,69.72
2023-04-11T00:38:46.651Z,69.50
2023-04-11T00:41:19.308Z,69.39
2023-04-11T00:43:50.159Z,69.29
2023-04-11T00:46:18.922Z,69.25
2023-04-11T00:48:48.258Z,69.28
2023-04-11T00:51:24.921Z,69.39
2023-04-11T00:53:53.710Z,69.45
2023-04-11T00:56:23.444Z,69.42
2023-04-11T00:58:52.100Z,69.52
2023-04-11T01:01:25.279Z,69.50
2023-04-11T01:03:54.493Z,69.49
2023-04-11T01:06:23.700Z,69.62
2023-04-11T01:08:57.178Z,69.64
2023-04-11T01:11:26.704Z,69.82
2023-04-11T01:13:55.084Z,69.94
2023-04-11T01:16:24.417Z,69.82
2023-04-11T01:18:53.601Z,69.71
2023-04-11T01:21:22.688Z,69.50
2023-04-11T01:23:53.107Z,69.56
2023-04-11T01:26:22.008Z,69.44
2023-04-11T01:28:51.622Z,69.53
2023-04-11T01:31:22.186Z,69.66
2023-04-11T01:33:50.933Z,69.80
2023-04-11T01:36:19.429Z,69.75
2023-04-11T01:39:40.327Z,69.83
2023-04-11T01:42:09.118Z,69.91
2023-04-11T01:44:37.699Z,69.86
2023-04-11T01:47:06.600Z,69.85
2023-04-11T01:49:38.352Z,69.89
2023-04-11T01:52:07.045Z,69.88
2023-04-11T01:54:35.631Z,69.70
2023-04-11T01:57:04.623Z,69.66
2023-04-11T01:59:33.036Z,69.69
2023-04-11T02:02:02.227Z,69.65
2023-04-11T02:04:32.427Z,69.65
2023-04-11T02:07:00.809Z,69.68
2023-04-11T02:09:34.354Z,69.70
2023-04-11T02:12:02.798Z,69.52
2023-04-11T02:14:44.090Z,69.53
2023-04-11T02:17:14.329Z,69.33
2023-04-11T02:19:45.745Z,69.10
2023-04-11T02:22:17.410Z,69.18
2023-04-11T02:24:47.831Z,69.37
2023-04-11T02:27:16.629Z,69.19
2023-04-11T02:29:45.109Z,69.28
2023-04-11T02:32:14.703Z,69.38
2023-04-11T02:34:43.304Z,69.33
2023-04-11T02:37:18.751Z,69.37
2023-04-11T02:39:47.949Z,69.21
2023-04-11T02:42:16.743Z,69.17
2023-04-11T02:44:55.873Z,69.12
2023-04-11T02:47:28.778Z,69.29
2023-04-11T02:50:07.863Z,69.50
2023-04-11T02:52:42.520Z,69.58
2023-04-11T02:55:11.620Z,69.52
2023-04-11T02:57:40.513Z,69.64
2023-04-11T03:00:11.816Z,69.85
2023-04-11T03:02:49.781Z,69.68
2023-04-11T03:05:21.638Z,69.73
2023-04-11T03:07:51.545Z,69.64
2023-04-11T03:10:24.538Z,69.61
2023-04-11T03:12:53.336Z,69.72
2023-04-11T03:15:21.919Z,69.61
2023-04-11T03:17:50.867Z,69.45
2023-04-11T03:20:20.112Z,69.29
2023-04-11T03:22:51.464Z,69.22
2023-04-11T03:25:20.571Z,69.00
2023-04-11T03:27:50.475Z,69.11
2023-04-11T03:30:23.264Z,69.14
2023-04-11T03:32:53.392Z,68.99
2023-04-11T03:35:22.073Z,68.76
2023-04-11T03:37:51.275Z,68.78
2023-04-11T03:40:20.164Z,68.77
2023-04-11T03:42:53.773Z,68.55
2023-04-11T03:45:26.456Z,68.39
2023-04-11T03:47:55.296Z,68.08
2023-04-11T03:50:26.600Z,68.00
2023-04-11T03:52:58.968Z,67.99
2023-04-11T03:55:27.766Z,68.18
2023-04-11T03:57:57.476Z,68.05
2023-04-11T04:00:27.111Z,67.95
2023-04-11T04:03:08.408Z,67.82
2023-04-11T04:05:37.472Z,67.80
2023-04-11T04:08:06.774Z,67.70
2023-04-11T04:10:49.282Z,67.53
2023-04-11T04:13:18.078Z,67.51
2023-04-11T04:16:03.545Z,67.46
2023-04-11T04:18:34.703Z,67.11
2023-04-11T04:21:03.801Z,66.88
2023-04-11T04:23:32.809Z,66.66
2023-04-11T04:26:18.381Z,66.47
2023-04-11T04:29:04.881Z,66.27
2023-04-11T04:31:50.922Z,66.12
2023-04-11T04:34:22.132Z,65.63
2023-04-11T04:36:56.764Z,65.73
2023-04-11T04:39:34.461Z,65.61
2023-04-11T04:42:10.010Z,65.61
2023-04-11T04:45:00.833Z,65.43
2023-04-11T04:47:33.792Z,65.22
2023-04-11T04:50:02.305Z,65.13
2023-04-11T04:52:31.698Z,64.64
2023-04-11T04:55:01.529Z,64.34
2023-04-11T04:57:32.353Z,63.85
2023-04-11T05:00:12.234Z,63.74
2023-04-11T05:02:45.274Z,63.56
2023-04-11T05:05:16.132Z,63.32
2023-04-11T05:07:45.635Z,63.11
2023-04-11T05:10:17.091Z,62.71
2023-04-11T05:12:46.184Z,63.03
2023-04-11T05:15:15.503Z,62.39
2023-04-11T05:17:45.145Z,62.62
2023-04-11T05:20:15.736Z,62.72
2023-04-11T05:22:47.796Z,62.44
2023-04-11T05:25:17.714Z,61.75
2023-04-11T05:27:48.041Z,61.58
2023-04-11T05:30:17.152Z,61.57
2023-04-11T05:32:51.612Z,61.13
2023-04-11T05:35:21.779Z,61.24
2023-04-11T05:37:53.462Z,60.63
2023-04-11T05:40:22.131Z,60.37
2023-04-11T05:42:50.937Z,60.18
2023-04-11T05:45:20.219Z,59.83
2023-04-11T05:47:48.725Z,59.71
2023-04-11T05:50:17.226Z,58.92
2023-04-11T05:52:46.776Z,58.74
2023-04-11T05:55:16.095Z,59.05
2023-04-11T05:57:47.137Z,58.47
2023-04-11T06:00:17.154Z,58.43
2023-04-11T06:03:08.310Z,57.52
2023-04-11T06:05:38.283Z,57.44
2023-04-11T06:08:07.697Z,57.02
2023-04-11T06:10:36.393Z,56.09
2023-04-11T06:13:09.261Z,55.48
2023-04-11T06:15:38.375Z,55.25
2023-04-11T06:18:06.990Z,55.74
2023-04-11T06:20:37.067Z,55.14
2023-04-11T06:23:08.212Z,55.26
2023-04-11T06:25:36.526Z,54.29
2023-04-11T06:28:06.919Z,54.24
2023-04-11T06:30:35.608Z,54.03
2023-04-11T06:33:04.635Z,54.35
2023-04-11T06:35:33.719Z,54.11
2023-04-11T06:38:02.287Z,53.89
2023-04-11T06:40:30.668Z,53.47
2023-04-11T06:43:00.480Z,51.94
2023-04-11T06:45:29.286Z,49.90
2023-04-11T06:47:58.394Z,48.25
2023-04-11T06:50:27.265Z,48.51
2023-04-11T06:52:56.296Z,48.71
2023-04-11T06:55:24.979Z,48.31
2023-04-11T06:57:53.330Z,47.43
2023-04-11T07:00:22.221Z,46.14
2023-04-11T07:02:52.985Z,45.31
2023-04-11T07:05:21.648Z,45.22
2023-04-11T07:07:50.436Z,46.25
2023-04-11T07:10:19.229Z,45.48
2023-04-11T07:12:47.709Z,46.09
2023-04-11T07:15:21.107Z,44.59
2023-04-11T07:17:52.169Z,45.25
2023-04-11T07:20:21.251Z,45.36
2023-04-11T07:22:49.744Z,44.81
2023-04-11T07:25:22.923Z,44.26
2023-04-11T07:27:51.735Z,42.98
2023-04-11T07:30:21.430Z,42.71
2023-04-11T07:32:50.912Z,43.37
2023-04-11T07:35:20.553Z,43.01
2023-04-11T07:37:49.951Z,43.83
2023-04-11T07:40:18.329Z,43.47
2023-04-11T07:42:47.017Z,43.28
2023-04-11T07:45:15.498Z,42.15
2023-04-11T07:47:44.699Z,42.27
2023-04-11T07:50:14.003Z,42.44
2023-04-11T07:52:42.381Z,42.19
2023-04-11T07:55:11.276Z,42.34
2023-04-11T07:57:39.653Z,41.18
2023-04-11T08:00:11.540Z,41.03
2023-04-11T08:02:44.572Z,41.14
2023-04-11T08:05:13.597Z,41.17
2023-04-11T08:07:48.842Z,40.63
2023-04-11T08:10:18.044Z,41.09
2023-04-11T08:12:46.626Z,40.80
2023-04-11T08:15:17.330Z,40.09
2023-04-11T08:17:46.893Z,40.83
2023-04-11T08:20:15.895Z,39.83
2023-04-11T08:22:52.141Z,39.25
2023-04-11T08:25:23.027Z,39.38
2023-04-11T08:27:52.749Z,38.62
2023-04-11T08:30:21.495Z,38.45
2023-04-11T08:32:50.719Z,39.38
2023-04-11T08:35:19.262Z,39.09
2023-04-11T08:37:49.401Z,39.02
2023-04-11T08:40:17.981Z,38.35
2023-04-11T08:42:47.683Z,38.08
2023-04-11T08:45:16.163Z,37.44
2023-04-11T08:47:45.912Z,38.07
2023-04-11T08:50:15.690Z,38.04
2023-04-11T08:52:45.192Z,38.33
2023-04-11T08:55:13.790Z,37.51
2023-04-11T08:57:42.775Z,37.46
2023-04-11T09:00:15.083Z,36.88
2023-04-11T09:03:04.751Z,36.61
2023-04-11T09:05:42.216Z,37.51
2023-04-11T09:08:12.954Z,36.39
2023-04-11T09:10:42.103Z,36.23
2023-04-11T09:13:24.978Z,35.66
2023-04-11T09:16:16.287Z,36.37
2023-04-11T09:18:46.219Z,36.41
2023-04-11T09:21:25.237Z,35.74
2023-04-11T09:23:55.324Z,35.93
2023-04-11T09:26:28.175Z,35.29
2023-04-11T09:28:57.790Z,35.28
2023-04-11T09:31:45.673Z,34.96
2023-04-11T09:34:20.424Z,35.63
2023-04-11T09:36:54.518Z,35.64
2023-04-11T09:39:26.916Z,35.99
2023-04-11T09:41:55.508Z,36.07
2023-04-11T09:44:37.751Z,35.73
2023-04-11T09:47:09.161Z,35.65
2023-04-11T09:49:38.155Z,35.64
2023-04-11T09:52:06.738Z,35.45
2023-04-11T09:54:36.044Z,35.68
2023-04-11T09:57:04.524Z,36.31
2023-04-11T09:59:33.620Z,36.39
2023-04-11T10:02:02.286Z,37.03
2023-04-11T10:04:34.826Z,37.61
2023-04-11T10:07:13.054Z,37.59
2023-04-11T10:09:43.236Z,36.96
2023-04-11T10:12:12.626Z,37.02
2023-04-11T10:14:42.545Z,37.17
2023-04-11T10:17:10.926Z,37.35
2023-04-11T10:19:40.342Z,37.83
2023-04-11T10:22:08.715Z,37.05
2023-04-11T10:24:37.911Z,37.12
2023-04-11T10:27:07.830Z,37.15
2023-04-11T10:29:50.833Z,37.09
2023-04-11T10:32:21.641Z,37.69
2023-04-11T10:34:50.904Z,38.36
2023-04-11T10:37:35.981Z,37.77
2023-04-11T10:40:10.267Z,38.17
2023-04-11T10:42:44.104Z,37.67
2023-04-11T10:45:25.798Z,38.00
2023-04-11T10:48:11.896Z,37.23
2023-04-11T10:50:42.466Z,36.83
2023-04-11T10:53:34.262Z,36.90
2023-04-11T10:56:03.354Z,37.07
2023-04-11T10:58:41.063Z,37.36
2023-04-11T11:01:25.717Z,37.00
2023-04-11T11:04:01.380Z,36.60
2023-04-11T11:06:31.899Z,37.29
2023-04-11T11:09:00.586Z,37.59
2023-04-11T11:11:29.377Z,38.30
2023-04-11T11:14:01.343Z,38.79
2023-04-11T11:16:29.881Z,39.42
2023-04-11T11:19:06.711Z,40.12
2023-04-11T11:21:35.706Z,39.60
2023-04-11T11:24:04.938Z,39.52
2023-04-11T11:26:43.350Z,39.59
2023-04-11T11:29:12.453Z,39.17
2023-04-11T11:31:46.003Z,39.22
2023-04-11T11:34:23.662Z,39.13
2023-04-11T11:36:53.733Z,38.94
2023-04-11T11:39:23.268Z,39.27
2023-04-11T11:41:54.001Z,39.60
2023-04-11T11:44:29.630Z,39.95
2023-04-11T11:47:04.905Z,40.59
2023-04-11T11:49:55.686Z,40.91
2023-04-11T11:52:40.988Z,40.65
2023-04-11T11:55:30.612Z,40.18
2023-04-11T11:58:02.379Z,40.19
2023-04-11T12:00:32.559Z,40.49
2023-04-11T12:03:01.302Z,40.57
2023-04-11T12:05:34.283Z,40.99
2023-04-11T12:08:04.939Z,40.97
2023-04-11T12:10:43.172Z,40.48
2023-04-11T12:13:16.097Z,41.04
2023-04-11T12:15:46.610Z,40.88
2023-04-11T12:18:15.037Z,39.33
2023-04-11T12:20:44.991Z,39.26
2023-04-11T12:23:13.583Z,39.96
2023-04-11T12:25:42.164Z,39.51
2023-04-11T12:28:11.263Z,39.49
2023-04-11T12:30:40.872Z,39.50
2023-04-11T12:33:13.879Z,39.14
2023-04-11T12:35:42.556Z,39.41
2023-04-11T12:38:17.404Z,39.45
2023-04-11T12:40:49.290Z,39.73
2023-04-11T12:43:18.859Z,40.24
2023-04-11T12:45:47.579Z,40.16
2023-04-11T12:48:16.750Z,40.38
2023-04-11T12:50:45.956Z,40.17
2023-04-11T12:53:14.330Z,39.90
2023-04-11T12:55:44.086Z,39.69
2023-04-11T12:58:14.818Z,39.93
2023-04-11T13:00:43.370Z,40.14
2023-04-11T13:03:16.496Z,40.36
2023-04-11T13:05:46.802Z,40.61
2023-04-11T13:08:15.785Z,40.13
2023-04-11T13:10:44.178Z,40.48
2023-04-11T13:15:47.177Z,40.23
2023-04-11T13:18:15.984Z,40.34
2023-04-11T13:20:46.392Z,40.12
2023-04-11T13:23:16.675Z,39.42
2023-04-11T13:25:49.305Z,39.92
2023-04-11T13:28:18.613Z,39.49
2023-04-11T13:30:47.511Z,39.28
2023-04-11T13:33:16.907Z,39.71
2023-04-11T13:35:46.207Z,39.88
2023-04-11T13:38:16.942Z,39.41
2023-04-11T13:40:46.248Z,39.53
2023-04-11T13:43:14.954Z,39.77
2023-04-11T13:45:43.984Z,39.12
2023-04-11T13:48:15.921Z,38.85
2023-04-11T13:50:45.827Z,37.56
2023-04-11T13:53:14.298Z,37.32
2023-04-11T13:57:13.002Z,37.49
2023-04-11T13:59:41.381Z,37.08
2023-04-11T14:02:10.609Z,36.76
2023-04-11T14:04:39.163Z,37.24
2023-04-11T14:07:07.665Z,37.52
2023-04-11T14:09:36.570Z,37.76
2023-04-11T14:12:06.006Z,37.89
2023-04-11T14:14:35.359Z,38.13
2023-04-11T14:17:04.237Z,38.02
2023-04-11T14:19:32.852Z,37.63
2023-04-11T14:22:01.840Z,37.72
2023-04-11T14:24:30.421Z,37.85
2023-04-11T14:26:59.724Z,37.38
2023-04-11T14:29:30.152Z,38.05
2023-04-11T14:31:58.861Z,37.62
2023-04-11T14:34:28.453Z,37.85
2023-04-11T14:36:57.113Z,37.43
2023-04-11T14:39:26.954Z,37.11
2023-04-11T14:41:56.572Z,37.00
2023-04-11T14:44:24.945Z,37.37
2023-04-11T14:46:53.325Z,37.27
2023-04-11T14:49:21.912Z,37.32
2023-04-11T14:51:52.968Z,37.92
2023-04-11T14:54:24.207Z,37.98
2023-04-11T14:56:52.605Z,38.37
2023-04-11T14:59:21.582Z,38.88
2023-04-11T15:01:50.149Z,39.25
2023-04-11T15:04:18.999Z,39.39
2023-04-11T15:06:48.571Z,39.43
2023-04-11T15:09:20.329Z,40.05
2023-04-11T15:11:49.047Z,40.48
2023-04-11T15:14:18.732Z,40.55
2023-04-11T15:16:47.420Z,41.22
2023-04-11T15:19:15.831Z,41.47
2023-04-11T15:21:46.751Z,41.55
2023-04-11T15:24:17.225Z,42.04
2023-04-11T15:26:46.679Z,42.08
2023-04-11T15:29:18.353Z,42.19
2023-04-11T15:31:47.097Z,42.30
2023-04-11T15:34:16.744Z,42.49
2023-04-11T15:36:45.944Z,42.62
2023-04-11T15:39:15.458Z,42.70
2023-04-11T15:41:44.249Z,42.79
2023-04-11T15:44:12.828Z,42.79
2023-04-11T15:46:41.572Z,42.77
2023-04-11T15:49:16.968Z,43.16
2023-04-11T15:51:46.683Z,43.68
2023-04-11T15:54:14.965Z,43.88
2023-04-11T15:56:44.876Z,44.05
2023-04-11T15:59:14.288Z,44.37
2023-04-11T16:01:44.566Z,44.48
2023-04-11T16:04:24.554Z,44.63
2023-04-11T16:06:53.261Z,44.89
2023-04-11T16:09:21.939Z,44.65
2023-04-11T16:11:53.699Z,44.76
2023-04-11T16:14:22.185Z,44.83
2023-04-11T16:16:53.275Z,44.53
2023-04-11T16:19:22.019Z,44.75
2023-04-11T16:21:50.705Z,45.03
2023-04-11T16:24:19.401Z,44.93
2023-04-11T16:26:49.260Z,44.86
2023-04-11T16:29:17.696Z,44.96
2023-04-11T16:31:46.218Z,44.96
2023-04-11T16:34:15.591Z,44.86
2023-04-11T16:36:44.381Z,44.62
2023-04-11T16:39:12.761Z,44.51
2023-04-11T16:41:41.452Z,44.71
2023-04-11T16:44:13.637Z,44.53
2023-04-11T16:46:42.527Z,44.40
2023-04-11T16:49:12.637Z,44.39
2023-04-11T16:51:41.842Z,44.38
2023-04-11T16:54:14.013Z,44.51
2023-04-11T16:56:42.605Z,44.46
2023-04-11T16:59:12.519Z,44.48
2023-04-11T17:01:42.340Z,44.59
2023-04-11T17:04:13.250Z,44.59
2023-04-11T17:06:41.761Z,44.60
2023-04-11T17:09:11.055Z,44.90
2023-04-11T17:11:39.753Z,45.07
2023-04-11T17:14:10.888Z,45.02
2023-04-11T17:16:40.624Z,45.04
2023-04-11T17:19:10.623Z,45.32
2023-04-11T17:21:46.791Z,44.91
2023-04-11T17:24:16.608Z,45.02
2023-04-11T17:26:45.182Z,45.29
2023-04-11T17:29:14.485Z,45.46
2023-04-11T17:31:42.971Z,45.15
2023-04-11T17:34:12.271Z,45.03
2023-04-11T17:36:43.188Z,45.28
2023-04-11T17:39:17.946Z,45.18
2023-04-11T17:41:47.155Z,45.29
2023-04-11T17:44:16.340Z,45.36
2023-04-11T17:46:44.868Z,45.47
2023-04-11T17:49:13.398Z,45.44
2023-04-11T17:51:48.733Z,45.62
2023-04-11T17:54:19.006Z,45.54
2023-04-11T17:56:47.572Z,45.49
2023-04-11T17:59:18.916Z,45.72
2023-04-11T18:01:47.480Z,45.84
2023-04-11T18:04:18.141Z,45.94
2023-04-11T18:06:46.924Z,46.02
2023-04-11T18:09:17.557Z,45.88
2023-04-11T18:11:45.968Z,45.92
2023-04-11T18:14:14.527Z,45.82
2023-04-11T18:16:47.826Z,46.10
2023-04-11T18:19:16.636Z,46.27
2023-04-11T18:21:45.202Z,46.22
2023-04-11T18:24:14.603Z,46.29
2023-04-11T18:26:42.983Z,46.21
2023-04-11T18:29:11.877Z,46.21
2023-04-11T18:31:44.096Z,46.37
2023-04-11T18:34:12.899Z,46.45
2023-04-11T18:36:47.791Z,46.00
2023-04-11T18:39:17.640Z,46.08
2023-04-11T18:41:46.780Z,46.34
2023-04-11T18:44:16.085Z,46.35
2023-04-11T18:46:46.571Z,46.35
2023-04-11T18:49:17.828Z,46.56
2023-04-11T18:51:46.455Z,46.55
2023-04-11T18:54:14.936Z,46.51
2023-04-11T18:56:47.587Z,46.15
2023-04-11T18:59:23.508Z,46.11
2023-04-11T19:01:53.443Z,46.46
2023-04-11T19:04:24.678Z,46.95
2023-04-11T19:06:53.222Z,47.16
2023-04-11T19:09:24.375Z,47.20
2023-04-11T19:11:52.750Z,47.23
2023-04-11T19:14:21.759Z,47.40
2023-04-11T19:16:50.540Z,47.35
2023-04-11T19:19:19.530Z,46.76
2023-04-11T19:21:49.068Z,46.97
2023-04-11T19:24:17.522Z,46.94
2023-04-11T19:26:46.534Z,47.22
2023-04-11T19:29:16.794Z,47.27
2023-04-11T19:31:45.478Z,47.23
2023-04-11T19:34:15.653Z,47.05
2023-04-11T19:36:45.059Z,46.87
2023-04-11T19:39:13.446Z,47.00
2023-04-11T19:41:46.229Z,47.25
2023-04-11T19:44:14.917Z,47.03
2023-04-11T19:46:43.298Z,47.13
2023-04-11T19:49:11.677Z,47.46
2023-04-11T19:51:40.993Z,47.86
2023-04-11T19:54:09.568Z,47.81
2023-04-11T19:56:41.227Z,47.73
2023-04-11T19:59:13.188Z,47.66
2023-04-11T20:01:42.900Z,47.49
2023-04-11T20:04:13.216Z,47.36
2023-04-11T20:06:44.485Z,47.33
2023-04-11T20:09:13.067Z,47.13
2023-04-11T20:11:43.901Z,47.45
2023-04-11T20:14:12.594Z,47.42
2023-04-11T20:16:45.903Z,47.32
2023-04-11T20:19:14.885Z,47.25
2023-04-11T20:21:43.571Z,47.21
2023-04-11T20:24:15.650Z,47.25
2023-04-11T20:26:44.019Z,47.37
2023-04-11T20:29:12.321Z,47.89
2023-04-11T20:31:42.233Z,47.92
2023-04-11T20:34:11.776Z,48.46
2023-04-11T20:36:44.915Z,48.49
2023-04-11T20:39:13.502Z,48.42
2023-04-11T20:41:42.187Z,48.18
2023-04-11T20:44:11.020Z,48.08
2023-04-11T20:46:40.138Z,47.92
2023-04-11T20:49:10.810Z,48.05
2023-04-11T20:51:41.455Z,48.47
2023-04-11T20:54:10.031Z,48.94
2023-04-11T20:56:39.046Z,49.52
2023-04-11T20:59:09.350Z,50.18
2023-04-11T21:01:38.122Z,50.87
2023-04-11T21:04:09.983Z,51.20
2023-04-11T21:06:45.145Z,51.77
2023-04-11T21:09:13.526Z,52.28
2023-04-11T21:11:42.211Z,52.47
2023-04-11T21:14:21.346Z,51.80
2023-04-11T21:16:50.360Z,51.32
2023-04-11T21:19:18.928Z,49.88
2023-04-11T21:21:53.752Z,48.98
2023-04-11T21:24:22.345Z,48.71
2023-04-11T21:26:50.944Z,48.70
2023-04-11T21:29:28.629Z,48.91
2023-04-11T21:31:57.118Z,49.74
2023-04-11T21:34:25.595Z,50.25
2023-04-11T21:36:54.692Z,50.63
2023-04-11T21:39:25.133Z,51.02
2023-04-11T21:41:53.606Z,51.28
2023-04-11T21:44:22.104Z,51.83
2023-04-11T21:46:52.143Z,52.36
2023-04-11T21:49:21.616Z,52.95
2023-04-11T21:51:54.917Z,53.46
2023-04-11T21:54:24.832Z,54.46
2023-04-11T21:56:53.319Z,55.62
2023-04-11T21:59:25.097Z,56.47
2023-04-11T22:01:54.335Z,57.42
2023-04-11T22:04:23.506Z,58.34
2023-04-11T22:06:56.568Z,59.17
2023-04-11T22:09:26.391Z,59.77
2023-04-11T22:11:55.075Z,60.23
2023-04-11T22:14:27.760Z,60.77
2023-04-11T22:16:58.457Z,61.11
2023-04-11T22:19:28.922Z,61.83
2023-04-11T22:22:03.574Z,62.33
2023-04-11T22:24:32.546Z,62.81
2023-04-11T22:27:04.513Z,63.09
2023-04-11T22:29:34.947Z,63.17
2023-04-11T22:32:04.452Z,63.39
2023-04-11T22:34:32.938Z,63.47
2023-04-11T22:37:02.250Z,64.06
2023-04-11T22:39:31.134Z,64.35
2023-04-11T22:42:00.226Z,64.84
2023-04-11T22:44:28.718Z,65.01
2023-04-11T22:47:06.587Z,65.35
2023-04-11T22:49:42.276Z,65.56
2023-04-11T22:52:14.413Z,65.70
2023-04-11T22:54:43.263Z,65.95
2023-04-11T22:57:11.921Z,66.06
2023-04-11T22:59:42.967Z,66.38
2023-04-11T23:02:12.333Z,66.65
2023-04-11T23:04:40.984Z,66.31
2023-04-11T23:07:10.570Z,66.03
2023-04-11T23:09:39.048Z,65.97
2023-04-11T23:12:11.936Z,65.70
2023-04-11T23:14:42.979Z,65.72
2023-04-11T23:17:12.804Z,65.67
2023-04-11T23:19:42.710Z,65.68
2023-04-11T23:22:11.091Z,65.91
2023-04-11T23:24:39.576Z,65.91
2023-04-11T23:27:08.785Z,65.71
2023-04-11T23:29:38.806Z,65.67
2023-04-11T23:32:07.703Z,65.04
2023-04-11T23:34:38.845Z,65.17
2023-04-11T23:37:08.241Z,65.01
2023-04-11T23:39:36.834Z,64.92
2023-04-11T23:42:08.006Z,64.96
2023-04-11T23:44:37.078Z,65.02
2023-04-11T23:47:08.556Z,65.24
2023-04-11T23:49:37.525Z,65.39
2023-04-11T23:52:08.568Z,65.51
2023-04-11T23:54:37.155Z,65.59
2023-04-11T23:57:06.568Z,65.89
2023-04-11T23:59:36.380Z,65.98
